createdAt,value
2023-03-24T00:00:21.353Z,99881.57
2023-03-24T00:02:51.688Z,99871.20
2023-03-24T00:05:22.273Z,99867.70
2023-03-24T00:07:55.015Z,99864.20
2023-03-24T00:10:24.447Z,99862.95
2023-03-24T00:12:53.476Z,99864.09
2023-03-24T00:15:24.217Z,99862.50
2023-03-24T00:17:55.836Z,99862.50
2023-03-24T00:20:26.493Z,99860.59
2023-03-24T00:22:58.347Z,99862.81
2023-03-24T00:25:32.841Z,99858.07
2023-03-24T00:28:05.651Z,99858.91
2023-03-24T00:30:35.673Z,99858.30
2023-03-24T00:33:05.263Z,99859.67
2023-03-24T00:35:35.248Z,99849.40
2023-03-24T00:38:04.861Z,99854.05
2023-03-24T00:40:33.956Z,99850.16
2023-03-24T00:43:04.541Z,99845.95
2023-03-24T00:45:34.131Z,99846.26
2023-03-24T00:48:05.988Z,99842.67
2023-03-24T00:50:35.011Z,99831.68
2023-03-24T00:53:06.048Z,99837.40
2023-03-24T00:55:37.732Z,99826.94
2023-03-24T00:58:06.764Z,99835.41
2023-03-24T01:00:38.890Z,99829.07
2023-03-24T01:03:09.589Z,99834.03
2023-03-24T01:05:41.935Z,99827.70
2023-03-24T01:08:11.600Z,99829.07
2023-03-24T01:10:46.897Z,99828.77
2023-03-24T01:13:18.050Z,99829.07
2023-03-24T01:15:47.453Z,99827.61
2023-03-24T01:18:17.198Z,99831.11
2023-03-24T01:20:47.054Z,99828.90
2023-03-24T01:23:23.715Z,99829.34
2023-03-24T01:25:53.700Z,99819.42
2023-03-24T01:28:28.382Z,99826.20
2023-03-24T01:30:57.395Z,99820.62
2023-03-24T01:33:26.727Z,99822.75
2023-03-24T01:35:56.225Z,99818.54
2023-03-24T01:38:25.529Z,99821.50
2023-03-24T01:40:55.400Z,99812.65
2023-03-24T01:43:32.987Z,99817.21
2023-03-24T01:46:07.715Z,99813.22
2023-03-24T01:48:45.364Z,99815.88
2023-03-24T01:51:33.597Z,99813.58
2023-03-24T01:54:19.492Z,99821.81
2023-03-24T01:56:54.135Z,99826.68
2023-03-24T01:59:27.264Z,99822.48
2023-03-24T02:01:59.548Z,99819.42
2023-03-24T02:04:38.462Z,99836.64
2023-03-24T02:07:22.168Z,99838.77
2023-03-24T02:09:52.726Z,99835.40
2023-03-24T02:12:22.010Z,99838.02
2023-03-24T02:14:52.860Z,99836.55
2023-03-24T02:17:29.799Z,99837.70
2023-03-24T02:20:45.670Z,99843.33
2023-03-24T02:23:44.391Z,99842.08
2023-03-24T02:26:41.572Z,99839.14
2023-03-24T02:30:06.534Z,99843.16
2023-03-24T02:33:09.224Z,99838.95
2023-03-24T02:36:24.465Z,99839.08
2023-03-24T02:39:40.204Z,99840.36
2023-03-24T02:42:18.096Z,99835.83
2023-03-24T02:45:11.511Z,99843.97
2023-03-24T02:48:13.311Z,99845.02
2023-03-24T02:51:06.832Z,99846.08
2023-03-24T02:54:01.270Z,99852.31
2023-03-24T02:56:44.855Z,99856.64
2023-03-24T02:59:23.970Z,99853.06
2023-03-24T03:02:23.184Z,99846.73
2023-03-24T03:05:03.067Z,99848.63
2023-03-24T03:07:33.322Z,99855.90
2023-03-24T03:10:24.865Z,99845.98
2023-03-24T03:12:57.439Z,99848.83
2023-03-24T03:15:31.939Z,99852.62
2023-03-24T03:18:06.984Z,99856.21
2023-03-24T03:20:42.383Z,99855.05
2023-03-24T03:23:13.926Z,99862.45
2023-03-24T03:25:48.425Z,99854.43
2023-03-24T03:28:22.889Z,99857.70
2023-03-24T03:30:58.833Z,99859.60
2023-03-24T03:33:38.429Z,99858.13
2023-03-24T03:36:27.894Z,99864.36
2023-03-24T03:39:30.777Z,99865.42
2023-03-24T03:42:01.575Z,99867.53
2023-03-24T03:44:32.007Z,99863.73
2023-03-24T03:47:01.227Z,99870.06
2023-03-24T03:49:32.311Z,99870.91
2023-03-24T03:52:03.291Z,99880.50
2023-03-24T03:54:34.264Z,99875.02
2023-03-24T03:57:03.354Z,99882.19
2023-03-24T03:59:50.665Z,99877.45
2023-03-24T04:02:49.062Z,99877.34
2023-03-24T04:05:45.592Z,99883.98
2023-03-24T04:08:44.469Z,99882.94
2023-03-24T04:11:30.542Z,99881.03
2023-03-24T04:14:41.925Z,99882.94
2023-03-24T04:17:30.051Z,99884.30
2023-03-24T04:20:12.065Z,99887.98
2023-03-24T04:23:08.800Z,99884.72
2023-03-24T04:25:58.080Z,99894.84
2023-03-24T04:28:41.978Z,99892.31
2023-03-24T04:31:24.077Z,99901.39
2023-03-24T04:34:05.430Z,99888.42
2023-03-24T04:36:43.143Z,99887.89
2023-03-24T04:39:33.961Z,99890.63
2023-03-24T04:42:08.342Z,99901.39
2023-03-24T04:44:37.915Z,99895.69
2023-03-24T04:47:25.848Z,99905.91
2023-03-24T04:50:09.809Z,99906.23
2023-03-24T04:52:41.336Z,99907.06
2023-03-24T04:55:24.771Z,99913.19
2023-03-24T04:57:53.783Z,99912.66
2023-03-24T05:00:24.148Z,99924.57
2023-03-24T05:02:53.253Z,99932.90
2023-03-24T05:05:24.203Z,99927.51
2023-03-24T05:07:56.673Z,99932.04
2023-03-24T05:10:25.790Z,99931.82
2023-03-24T05:12:58.220Z,99930.33
2023-03-24T05:15:43.771Z,99919.14
2023-03-24T05:18:17.470Z,99931.59
2023-03-24T05:20:46.371Z,99926.20
2023-03-24T05:23:17.757Z,99926.61
2023-03-24T05:25:49.496Z,99908.55
2023-03-24T05:28:18.476Z,99921.22
2023-03-24T05:30:47.435Z,99914.45
2023-03-24T05:33:22.540Z,99923.31
2023-03-24T05:35:52.422Z,99920.88
2023-03-24T05:38:21.304Z,99922.70
2023-03-24T05:40:51.838Z,99923.00
2023-03-24T05:43:20.848Z,99925.97
2023-03-24T05:45:51.651Z,99931.03
2023-03-24T05:48:24.467Z,99933.96
2023-03-24T05:50:56.572Z,99941.55
2023-03-24T05:53:26.235Z,99937.09
2023-03-24T05:56:03.168Z,99927.13
2023-03-24T05:58:35.596Z,99935.34
2023-03-24T06:01:09.989Z,99929.19
2023-03-24T06:03:40.145Z,99933.58
2023-03-24T06:06:14.608Z,99932.70
2023-03-24T06:08:45.222Z,99931.63
2023-03-24T06:11:18.047Z,99933.71
2023-03-24T06:13:52.200Z,99934.82
2023-03-24T06:16:23.631Z,99936.68
2023-03-24T06:18:54.702Z,99936.33
2023-03-24T06:21:27.358Z,99931.53
2023-03-24T06:23:58.210Z,99932.95
2023-03-24T06:26:30.818Z,99934.89
2023-03-24T06:29:01.740Z,99933.45
2023-03-24T06:31:34.334Z,99936.06
2023-03-24T06:34:07.191Z,99939.44
2023-03-24T06:36:36.310Z,99937.61
2023-03-24T06:39:05.924Z,99938.56
2023-03-24T06:41:35.432Z,99932.84
2023-03-24T06:44:06.044Z,99931.55
2023-03-24T06:46:37.549Z,99932.70
2023-03-24T06:49:06.272Z,99928.34
2023-03-24T06:51:35.257Z,99931.17
2023-03-24T06:54:04.615Z,99929.05
2023-03-24T06:56:34.940Z,99932.64
2023-03-24T06:59:03.954Z,99937.19
2023-03-24T07:01:35.892Z,99934.73
2023-03-24T07:04:11.404Z,99937.58
2023-03-24T07:07:05.104Z,99938.49
2023-03-24T07:09:21.147Z,99938.58
2023-03-24T07:11:50.378Z,99935.59
2023-03-24T07:14:21.253Z,99931.78
2023-03-24T07:16:53.391Z,99930.70
2023-03-24T07:19:24.090Z,99934.08
2023-03-24T07:21:55.301Z,99928.96
2023-03-24T07:24:26.804Z,99940.05
2023-03-24T07:26:57.943Z,99938.22
2023-03-24T07:29:27.560Z,99936.92
2023-03-24T07:32:00.617Z,99944.72
2023-03-24T07:34:30.541Z,99941.28
2023-03-24T07:37:06.417Z,99947.09
2023-03-24T07:39:36.393Z,99948.24
2023-03-24T07:42:06.243Z,99946.18
2023-03-24T07:44:37.087Z,99955.05
2023-03-24T07:47:09.002Z,99947.41
2023-03-24T07:49:38.061Z,99946.22
2023-03-24T07:52:09.672Z,99943.54
2023-03-24T07:54:47.263Z,99939.25
2023-03-24T07:57:18.044Z,99942.16
2023-03-24T07:59:47.156Z,99940.94
2023-03-24T08:02:21.801Z,99939.70
2023-03-24T08:04:56.335Z,99930.75
2023-03-24T08:07:30.115Z,99938.70
2023-03-24T08:10:00.065Z,99933.64
2023-03-24T08:12:29.370Z,99929.66
2023-03-24T08:14:58.141Z,99938.36
2023-03-24T08:17:28.281Z,99932.39
2023-03-24T08:20:00.970Z,99928.62
2023-03-24T08:22:28.761Z,99930.08
2023-03-24T08:24:57.390Z,99941.50
2023-03-24T08:27:28.552Z,99942.42
2023-03-24T08:30:02.005Z,99929.48
2023-03-24T08:32:32.324Z,99935.30
2023-03-24T08:35:02.766Z,99927.87
2023-03-24T08:37:32.505Z,99925.95
2023-03-24T08:40:05.329Z,99925.17
2023-03-24T08:42:33.989Z,99927.50
2023-03-24T08:45:05.118Z,99918.99
2023-03-24T08:47:34.225Z,99920.74
2023-03-24T08:50:06.622Z,99919.97
2023-03-24T08:52:36.827Z,99917.28
2023-03-24T08:55:07.499Z,99916.51
2023-03-24T08:57:36.686Z,99921.31
2023-03-24T09:00:08.795Z,99915.16
2023-03-24T09:02:39.152Z,99919.96
2023-03-24T09:05:09.048Z,99922.31
2023-03-24T09:07:38.922Z,99921.60
2023-03-24T09:10:09.736Z,99915.67
2023-03-24T09:12:40.156Z,99919.70
2023-03-24T09:15:13.177Z,99922.91
2023-03-24T09:17:41.758Z,99924.48
2023-03-24T09:20:13.944Z,99921.84
2023-03-24T09:22:45.437Z,99917.66
2023-03-24T09:25:18.639Z,99919.21
2023-03-24T09:27:47.555Z,99916.33
2023-03-24T09:30:17.921Z,99915.06
2023-03-24T09:32:47.618Z,99912.13
2023-03-24T09:35:17.004Z,99913.02
2023-03-24T09:37:48.095Z,99905.14
2023-03-24T09:40:24.769Z,99903.16
2023-03-24T09:43:01.977Z,99906.33
2023-03-24T09:45:32.991Z,99902.59
2023-03-24T09:48:13.662Z,99905.47
2023-03-24T09:50:53.356Z,99902.02
2023-03-24T09:54:04.349Z,99899.95
2023-03-24T09:56:35.597Z,99894.83
2023-03-24T09:59:18.060Z,99887.53
2023-03-24T10:01:49.668Z,99890.98
2023-03-24T10:04:24.140Z,99888.63
2023-03-24T10:07:20.786Z,99896.25
2023-03-24T10:09:57.823Z,99891.16
2023-03-24T10:12:45.778Z,99887.16
2023-03-24T10:18:14.218Z,99889.40
2023-03-24T10:21:22.662Z,99880.72
2023-03-24T10:24:25.198Z,99885.25
2023-03-24T10:27:18.830Z,99875.98
2023-03-24T10:29:47.934Z,99870.66
2023-03-24T10:32:26.972Z,99871.65
2023-03-24T10:34:59.292Z,99862.91
2023-03-24T10:37:29.386Z,99861.39
2023-03-24T10:40:01.318Z,99862.63
2023-03-24T10:42:34.007Z,99864.13
2023-03-24T10:45:02.825Z,99852.86
2023-03-24T10:47:33.056Z,99852.67
2023-03-24T10:50:14.331Z,99851.67
2023-03-24T10:52:41.100Z,99852.00
2023-03-24T10:55:18.846Z,99842.05
2023-03-24T10:57:51.496Z,99845.14
2023-03-24T11:00:31.316Z,99842.47
2023-03-24T11:03:10.396Z,99836.20
2023-03-24T11:05:40.628Z,99830.50
2023-03-24T11:08:28.204Z,99830.30
2023-03-24T11:10:58.769Z,99820.64
2023-03-24T11:13:33.196Z,99827.38
2023-03-24T11:16:11.879Z,99820.78
2023-03-24T11:19:00.684Z,99818.61
2023-03-24T11:21:32.230Z,99829.23
2023-03-24T11:24:03.770Z,99823.97
2023-03-24T11:26:35.873Z,99825.09
2023-03-24T11:29:15.802Z,99825.65
2023-03-24T11:31:58.139Z,99820.65
2023-03-24T11:34:36.655Z,99819.84
2023-03-24T11:37:16.254Z,99819.60
2023-03-24T11:39:45.921Z,99803.82
2023-03-24T11:42:18.061Z,99809.37
2023-03-24T11:44:51.121Z,99800.76
2023-03-24T11:47:40.165Z,99800.78
2023-03-24T11:50:20.039Z,99801.62
2023-03-24T11:53:18.782Z,99798.31
2023-03-24T11:56:07.739Z,99796.12
2023-03-24T11:58:44.664Z,99794.75
2023-03-24T12:01:24.884Z,99786.73
2023-03-24T12:04:05.523Z,99777.07
2023-03-24T12:07:03.026Z,99780.70
2023-03-24T12:09:52.867Z,99784.38
2023-03-24T12:12:57.924Z,99778.56
2023-03-24T12:15:47.426Z,99770.51
2023-03-24T12:18:30.860Z,99767.41
2023-03-24T12:21:27.219Z,99766.90
2023-03-24T12:24:08.570Z,99766.37
2023-03-24T12:26:39.545Z,99756.41
2023-03-24T12:29:32.557Z,99753.95
2023-03-24T12:32:34.097Z,99756.76
2023-03-24T12:35:37.017Z,99758.18
2023-03-24T12:38:40.052Z,99759.09
2023-03-24T12:41:38.718Z,99758.56
2023-03-24T12:44:14.231Z,99753.01
2023-03-24T12:47:01.906Z,99759.95
2023-03-24T12:49:54.106Z,99755.22
2023-03-24T12:52:45.907Z,99757.42
2023-03-24T12:55:35.259Z,99745.77
2023-03-24T12:58:28.959Z,99736.33
2023-03-24T13:01:09.885Z,99737.45
2023-03-24T13:03:57.211Z,99735.51
2023-03-24T13:06:54.592Z,99730.80
2023-03-24T13:09:56.604Z,99729.97
2023-03-24T13:12:55.276Z,99732.47
2023-03-24T13:15:46.313Z,99720.52
2023-03-24T13:18:44.797Z,99731.63
2023-03-24T13:21:20.942Z,99729.69
2023-03-24T13:24:01.262Z,99723.59
2023-03-24T13:27:06.007Z,99721.92
2023-03-24T13:29:55.311Z,99723.88
2023-03-24T13:32:43.901Z,99717.22
2023-03-24T13:35:53.374Z,99713.34
2023-03-24T13:38:43.154Z,99704.45
2023-03-24T13:41:16.057Z,99705.84
2023-03-24T13:43:52.317Z,99707.80
2023-03-24T13:46:21.448Z,99705.59
2023-03-24T13:48:55.934Z,99705.33
2023-03-24T13:51:33.885Z,99695.89
2023-03-24T13:54:22.952Z,99696.17
2023-03-24T13:57:10.717Z,99689.78
2023-03-24T13:59:42.072Z,99695.89
2023-03-24T14:02:31.478Z,99698.94
2023-03-24T14:05:08.076Z,99685.61
2023-03-24T14:07:44.027Z,99693.66
2023-03-24T14:10:21.311Z,99685.87
2023-03-24T14:13:01.834Z,99695.58
2023-03-24T14:15:57.485Z,99697.22
2023-03-24T14:18:32.136Z,99689.72
2023-03-24T14:21:04.242Z,99688.03
2023-03-24T14:23:46.566Z,99687.73
2023-03-24T14:26:28.088Z,99689.95
2023-03-24T14:28:58.350Z,99681.28
2023-03-24T14:31:34.498Z,99685.42
2023-03-24T14:34:11.382Z,99686.25
2023-03-24T14:36:44.774Z,99691.78
2023-03-24T14:39:43.397Z,99685.95
2023-03-24T14:42:37.070Z,99677.87
2023-03-24T14:45:27.366Z,99677.87
2023-03-24T14:48:01.279Z,99689.52
2023-03-24T14:50:31.343Z,99682.02
2023-03-24T14:53:02.250Z,99683.10
2023-03-24T14:55:42.399Z,99677.22
2023-03-24T14:58:38.475Z,99683.30
2023-03-24T15:01:08.214Z,99678.58
2023-03-24T15:03:54.756Z,99668.28
2023-03-24T15:06:25.301Z,99663.00
2023-03-24T15:08:59.669Z,99666.86
2023-03-24T15:11:32.492Z,99666.30
2023-03-24T15:14:04.138Z,99665.44
2023-03-24T15:16:36.153Z,99662.37
2023-03-24T15:19:22.080Z,99661.52
2023-03-24T15:22:05.580Z,99660.95
2023-03-24T15:24:37.210Z,99661.74
2023-03-24T15:27:26.313Z,99673.66
2023-03-24T15:29:59.491Z,99666.15
2023-03-24T15:32:30.404Z,99667.20
2023-03-24T15:35:04.659Z,99658.02
2023-03-24T15:37:40.099Z,99669.09
2023-03-24T15:40:30.558Z,99668.24
2023-03-24T15:43:04.124Z,99673.22
2023-03-24T15:45:35.827Z,99673.20
2023-03-24T15:48:08.635Z,99671.79
2023-03-24T15:50:39.819Z,99671.48
2023-03-24T15:53:22.661Z,99670.07
2023-03-24T15:56:08.898Z,99674.47
2023-03-24T15:58:55.456Z,99669.45
2023-03-24T16:01:29.745Z,99676.08
2023-03-24T16:04:00.971Z,99672.16
2023-03-24T16:06:36.237Z,99664.38
2023-03-24T16:09:10.674Z,99671.83
2023-03-24T16:11:41.361Z,99669.86
2023-03-24T16:14:32.161Z,99677.86
2023-03-24T16:17:04.750Z,99678.67
2023-03-24T16:19:33.964Z,99679.16
2023-03-24T16:22:12.177Z,99687.19
2023-03-24T16:24:41.159Z,99687.71
2023-03-24T16:27:12.033Z,99684.62
2023-03-24T16:29:43.393Z,99684.57
2023-03-24T16:32:12.110Z,99682.59
2023-03-24T16:34:40.893Z,99694.76
2023-03-24T16:37:11.430Z,99691.13
2023-03-24T16:39:41.009Z,99692.20
2023-03-24T16:42:09.635Z,99693.55
2023-03-24T16:44:38.513Z,99686.86
2023-03-24T16:47:10.270Z,99695.72
2023-03-24T16:49:39.698Z,99692.92
2023-03-24T16:52:12.844Z,99689.28
2023-03-24T16:54:42.873Z,99689.25
2023-03-24T16:57:12.318Z,99696.44
2023-03-24T16:59:41.605Z,99686.71
2023-03-24T17:02:11.369Z,99692.22
2023-03-24T17:04:42.659Z,99694.95
2023-03-24T17:07:11.233Z,99690.73
2023-03-24T17:09:41.541Z,99687.66
2023-03-24T17:12:12.083Z,99690.36
2023-03-24T17:14:44.426Z,99691.97
2023-03-24T17:17:14.227Z,99688.33
2023-03-24T17:19:43.384Z,99680.80
2023-03-24T17:22:16.197Z,99681.28
2023-03-24T17:24:47.444Z,99683.17
2023-03-24T17:27:18.715Z,99688.39
2023-03-24T17:29:48.572Z,99695.56
2023-03-24T17:32:19.369Z,99689.13
2023-03-24T17:34:50.239Z,99689.05
2023-03-24T17:37:20.198Z,99689.75
2023-03-24T17:39:49.053Z,99691.85
2023-03-24T17:42:17.728Z,99697.31
2023-03-24T17:44:46.688Z,99692.55
2023-03-24T17:47:17.249Z,99685.84
2023-03-24T17:49:47.688Z,99696.03
2023-03-24T17:52:16.455Z,99700.69
2023-03-24T17:54:46.603Z,99703.62
2023-03-24T17:57:15.473Z,99699.06
2023-03-24T17:59:45.498Z,99702.29
2023-03-24T18:02:14.407Z,99706.40
2023-03-24T18:04:44.493Z,99711.88
2023-03-24T18:07:14.693Z,99714.60
2023-03-24T18:09:44.710Z,99715.36
2023-03-24T18:12:13.778Z,99715.91
2023-03-24T18:14:43.146Z,99711.71
2023-03-24T18:17:14.571Z,99710.83
2023-03-24T18:19:43.402Z,99707.27
2023-03-24T18:22:13.704Z,99703.97
2023-03-24T18:24:44.078Z,99708.70
2023-03-24T18:27:13.126Z,99709.74
2023-03-24T18:29:42.506Z,99727.61
2023-03-24T18:32:11.564Z,99721.41
2023-03-24T18:34:44.566Z,99725.47
2023-03-24T18:37:15.128Z,99724.28
2023-03-24T18:39:44.433Z,99728.72
2023-03-24T18:42:13.296Z,99727.05
2023-03-24T18:44:43.985Z,99729.27
2023-03-24T18:47:13.258Z,99717.63
2023-03-24T18:49:43.513Z,99723.15
2023-03-24T18:52:15.400Z,99719.25
2023-03-24T18:54:45.509Z,99723.69
2023-03-24T18:57:14.597Z,99729.27
2023-03-24T18:59:45.392Z,99727.05
2023-03-24T19:02:15.698Z,99727.30
2023-03-24T19:04:46.365Z,99729.17
2023-03-24T19:07:18.719Z,99724.98
2023-03-24T19:09:48.995Z,99728.53
2023-03-24T19:12:17.792Z,99721.67
2023-03-24T19:14:47.666Z,99718.13
2023-03-24T19:17:16.998Z,99711.22
2023-03-24T19:19:45.635Z,99709.84
2023-03-24T19:24:45.965Z,99709.30
2023-03-24T19:27:16.531Z,99700.17
2023-03-24T19:29:47.290Z,99700.17
2023-03-24T19:32:16.229Z,99700.72
2023-03-24T19:34:46.700Z,99694.35
2023-03-24T19:37:18.590Z,99691.59
2023-03-24T19:39:49.757Z,99702.09
2023-03-24T19:42:18.769Z,99693.77
2023-03-24T19:44:47.783Z,99693.72
2023-03-24T19:47:16.512Z,99696.14
2023-03-24T19:49:46.382Z,99689.66
2023-03-24T19:52:16.846Z,99682.33
2023-03-24T19:54:46.754Z,99674.24
2023-03-24T19:57:16.723Z,99668.08
2023-03-24T19:59:46.271Z,99664.14
2023-03-24T20:02:16.809Z,99660.50
2023-03-24T20:04:45.463Z,99662.87
2023-03-24T20:07:15.169Z,99658.03
2023-03-24T20:09:46.308Z,99661.83
2023-03-24T20:12:15.094Z,99655.97
2023-03-24T20:14:44.229Z,99651.78
2023-03-24T20:17:17.718Z,99650.64
2023-03-24T20:19:47.247Z,99646.70
2023-03-24T20:22:16.434Z,99644.14
2023-03-24T20:24:47.873Z,99648.47
2023-03-24T20:27:18.830Z,99638.52
2023-03-24T20:29:47.911Z,99638.47
2023-03-24T20:32:17.897Z,99637.55
2023-03-24T20:34:46.715Z,99633.60
2023-03-24T20:37:17.544Z,99630.01
2023-03-24T20:39:47.868Z,99623.01
2023-03-24T20:42:17.881Z,99623.80
2023-03-24T20:44:46.477Z,99625.17
2023-03-24T20:47:16.503Z,99624.58
2023-03-24T20:49:45.700Z,99621.77
2023-03-24T20:52:14.823Z,99620.63
2023-03-24T20:54:45.870Z,99623.34
2023-03-24T20:57:17.105Z,99619.45
2023-03-24T20:59:48.641Z,99610.04
2023-03-24T21:02:18.677Z,99604.47
2023-03-24T21:04:49.160Z,99604.77
2023-03-24T21:07:18.155Z,99604.77
2023-03-24T21:09:47.028Z,99605.31
2023-03-24T21:12:16.281Z,99599.20
2023-03-24T21:14:46.415Z,99600.23
2023-03-24T21:17:15.738Z,99596.94
2023-03-24T21:19:46.490Z,99606.88
2023-03-24T21:22:15.565Z,99598.61
2023-03-24T21:24:45.791Z,99592.84
2023-03-24T21:27:14.502Z,99604.47
2023-03-24T21:29:46.735Z,99595.71
2023-03-24T21:32:17.833Z,99595.22
2023-03-24T21:34:46.680Z,99593.35
2023-03-24T21:37:18.956Z,99588.48
2023-03-24T21:39:48.047Z,99581.05
2023-03-24T21:42:18.979Z,99576.95
2023-03-24T21:44:50.660Z,99575.33
2023-03-24T21:47:22.365Z,99571.48
2023-03-24T21:49:53.245Z,99577.30
2023-03-24T21:52:22.386Z,99568.48
2023-03-24T21:54:53.513Z,99569.86
2023-03-24T21:57:22.274Z,99564.34
2023-03-24T21:59:52.734Z,99570.16
2023-03-24T22:02:24.614Z,99576.52
2023-03-24T22:04:54.790Z,99579.86
2023-03-24T22:07:23.400Z,99574.34
2023-03-24T22:09:54.303Z,99567.41
2023-03-24T22:12:22.943Z,99565.48
2023-03-24T22:14:53.285Z,99558.83
2023-03-24T22:17:23.535Z,99562.13
2023-03-24T22:19:52.619Z,99551.09
2023-03-24T22:22:22.499Z,99554.98
2023-03-24T22:24:51.625Z,99554.70
2023-03-24T22:27:20.870Z,99559.67
2023-03-24T22:29:51.137Z,99560.51
2023-03-24T22:32:20.113Z,99567.70
2023-03-24T22:34:52.912Z,99562.72
2023-03-24T22:37:23.050Z,99555.78
2023-03-24T22:39:51.785Z,99549.13
2023-03-24T22:42:23.924Z,99535.29
2023-03-24T22:44:52.997Z,99533.38
2023-03-24T22:47:23.849Z,99537.51
2023-03-24T22:49:52.845Z,99540.31
2023-03-24T22:52:21.618Z,99540.06
2023-03-24T22:54:50.368Z,99542.53
2023-03-24T22:57:19.617Z,99546.67
2023-03-24T22:59:48.709Z,99544.16
2023-03-24T23:02:19.657Z,99543.31
2023-03-24T23:04:49.361Z,99538.05
2023-03-24T23:07:18.974Z,99535.59
2023-03-24T23:09:47.897Z,99528.69
2023-03-24T23:12:16.565Z,99527.56
2023-03-24T23:14:46.298Z,99528.40
2023-03-24T23:17:15.624Z,99529.83
2023-03-24T23:19:46.111Z,99538.39
2023-03-24T23:22:14.423Z,99531.25
2023-03-24T23:24:44.406Z,99526.57
2023-03-24T23:27:13.772Z,99522.73
2023-03-24T23:29:42.373Z,99517.50
2023-03-24T23:32:13.156Z,99508.98
2023-03-24T23:34:46.245Z,99505.69
2023-03-24T23:37:16.872Z,99513.20
2023-03-24T23:39:48.912Z,99504.63
2023-03-24T23:42:18.172Z,99505.69
2023-03-24T23:44:48.287Z,99506.22
2023-03-24T23:47:18.465Z,99498.78
2023-03-24T23:49:48.328Z,99497.11
2023-03-24T23:52:17.982Z,99496.27
2023-03-24T23:54:48.223Z,99492.14
2023-03-24T23:57:18.112Z,99491.59
2023-03-24T23:59:52.699Z,99491.59
